createdAt,value
2018-10-03T00:00:44.826Z,1008.26
2018-10-03T00:01:44.836Z,1008.27
2018-10-03T00:02:44.038Z,1008.37
2018-10-03T00:03:43.866Z,1008.36
2018-10-03T00:04:43.834Z,1008.28
2018-10-03T00:05:43.808Z,1008.31
2018-10-03T00:06:43.778Z,1008.33
2018-10-03T00:07:43.880Z,1008.42
2018-10-03T00:08:44.322Z,1008.30
2018-10-03T00:09:44.328Z,1008.30
2018-10-03T00:10:44.323Z,1008.36
2018-10-03T00:11:44.338Z,1008.37
2018-10-03T00:12:43.888Z,1008.30
2018-10-03T00:13:43.573Z,1008.38
2018-10-03T00:14:43.545Z,1008.32
2018-10-03T00:15:43.518Z,1008.42
2018-10-03T00:16:43.480Z,1008.39
2018-10-03T00:17:43.878Z,1008.49
2018-10-03T00:18:43.885Z,1008.46
2018-10-03T00:19:44.326Z,1008.52
2018-10-03T00:20:43.365Z,1008.50
2018-10-03T00:21:43.412Z,1008.59
2018-10-03T00:22:43.824Z,1008.48
2018-10-03T00:23:43.381Z,1008.55
2018-10-03T00:24:43.828Z,1008.56
2018-10-03T00:25:43.214Z,1008.56
2018-10-03T00:26:43.830Z,1008.58
2018-10-03T00:27:43.168Z,1008.57
2018-10-03T00:28:43.172Z,1008.51
2018-10-03T00:29:43.392Z,1008.49
2018-10-03T00:30:43.825Z,1008.50
2018-10-03T00:31:43.038Z,1008.49
2018-10-03T00:32:43.058Z,1008.50
2018-10-03T00:33:42.990Z,1008.49
2018-10-03T00:34:43.378Z,1008.53
2018-10-03T00:35:43.829Z,1008.51
2018-10-03T00:36:42.889Z,1008.43
2018-10-03T00:37:43.824Z,1008.43
2018-10-03T00:38:42.871Z,1008.49
2018-10-03T00:39:42.843Z,1008.38
2018-10-03T00:40:42.775Z,1008.39
2018-10-03T00:41:42.739Z,1008.40
2018-10-03T00:42:43.333Z,1008.35
2018-10-03T00:43:42.709Z,1008.45
2018-10-03T00:44:42.694Z,1008.36
2018-10-03T00:45:42.628Z,1008.45
2018-10-03T00:46:43.326Z,1008.43
2018-10-03T00:47:42.616Z,1008.36
2018-10-03T00:48:43.335Z,1008.48
2018-10-03T00:49:42.883Z,1008.45
2018-10-03T00:50:42.512Z,1008.54
2018-10-03T00:51:42.492Z,1008.43
2018-10-03T00:52:43.340Z,1008.46
2018-10-03T00:53:42.438Z,1008.47
2018-10-03T00:54:42.360Z,1008.47
2018-10-03T00:55:42.835Z,1008.59
2018-10-03T00:56:42.376Z,1008.60
2018-10-03T00:57:42.268Z,1008.55
2018-10-03T00:58:42.293Z,1008.46
2018-10-03T00:59:42.221Z,1008.63
2018-10-03T01:00:42.183Z,1008.50
2018-10-03T01:01:42.843Z,1008.58
2018-10-03T01:02:42.389Z,1008.51
2018-10-03T01:03:42.147Z,1008.57
2018-10-03T01:04:42.854Z,1008.55
2018-10-03T01:05:42.035Z,1008.56
2018-10-03T01:06:42.008Z,1008.59
2018-10-03T01:07:42.031Z,1008.56
2018-10-03T01:08:41.943Z,1008.50
2018-10-03T01:09:41.923Z,1008.53
2018-10-03T01:10:42.835Z,1008.55
2018-10-03T01:11:42.839Z,1008.54
2018-10-03T01:12:44.885Z,1008.61
2018-10-03T01:13:41.797Z,1008.57
2018-10-03T01:14:42.334Z,1008.59
2018-10-03T01:15:41.751Z,1008.51
2018-10-03T01:16:41.753Z,1008.58
2018-10-03T01:17:41.682Z,1008.67
2018-10-03T01:18:42.265Z,1008.58
2018-10-03T01:19:41.636Z,1008.67
2018-10-03T01:20:41.593Z,1008.63
2018-10-03T01:21:41.563Z,1008.63
2018-10-03T01:22:41.536Z,1008.59
2018-10-03T01:23:42.002Z,1008.64
2018-10-03T01:24:42.331Z,1008.66
2018-10-03T01:25:42.348Z,1008.66
2018-10-03T01:26:41.423Z,1008.65
2018-10-03T01:27:41.393Z,1008.61
2018-10-03T01:28:41.890Z,1008.76
2018-10-03T01:29:41.396Z,1008.73
2018-10-03T01:30:41.836Z,1008.66
2018-10-03T01:31:41.270Z,1008.75
2018-10-03T01:32:41.831Z,1008.67
2018-10-03T01:33:41.209Z,1008.59
2018-10-03T01:34:41.388Z,1008.58
2018-10-03T01:35:41.150Z,1008.68
2018-10-03T01:36:41.837Z,1008.73
2018-10-03T01:37:41.098Z,1008.62
2018-10-03T01:38:41.833Z,1008.61
2018-10-03T01:39:41.389Z,1008.65
2018-10-03T01:40:41.010Z,1008.65
2018-10-03T01:41:40.979Z,1008.66
2018-10-03T01:42:41.843Z,1008.65
2018-10-03T01:43:41.396Z,1008.61
2018-10-03T01:44:41.834Z,1008.64
2018-10-03T01:45:41.835Z,1008.68
2018-10-03T01:46:40.826Z,1008.72
2018-10-03T01:47:40.797Z,1008.70
2018-10-03T01:48:40.818Z,1008.77
2018-10-03T01:49:40.891Z,1008.70
2018-10-03T01:50:42.250Z,1008.72
2018-10-03T01:51:41.337Z,1008.84
2018-10-03T01:52:40.650Z,1008.73
2018-10-03T01:53:40.621Z,1008.77
2018-10-03T01:54:40.639Z,1008.80
2018-10-03T01:55:41.340Z,1008.87
2018-10-03T01:56:40.532Z,1008.78
2018-10-03T01:57:40.504Z,1008.82
2018-10-03T01:58:40.476Z,1008.85
2018-10-03T01:59:40.903Z,1008.75
2018-10-03T02:00:40.411Z,1008.74
2018-10-03T02:01:40.381Z,1008.77
2018-10-03T02:02:41.342Z,1008.79
2018-10-03T02:03:40.324Z,1008.78
2018-10-03T02:04:40.353Z,1008.74
2018-10-03T02:05:40.839Z,1008.81
2018-10-03T02:06:40.241Z,1008.73
2018-10-03T02:07:40.841Z,1008.82
2018-10-03T02:08:40.878Z,1008.93
2018-10-03T02:09:40.403Z,1008.91
2018-10-03T02:10:40.839Z,1008.86
2018-10-03T02:11:40.086Z,1008.88
2018-10-03T02:12:40.838Z,1008.91
2018-10-03T02:13:40.841Z,1009.03
2018-10-03T02:14:40.117Z,1008.96
2018-10-03T02:15:39.987Z,1009.03
2018-10-03T02:16:39.991Z,1008.97
2018-10-03T02:17:40.845Z,1008.97
2018-10-03T02:18:40.846Z,1008.92
2018-10-03T02:19:40.843Z,1008.93
2018-10-03T02:20:40.341Z,1008.84
2018-10-03T02:21:39.897Z,1008.92
2018-10-03T02:22:39.760Z,1008.91
2018-10-03T02:23:39.732Z,1008.97
2018-10-03T02:24:40.342Z,1008.86
2018-10-03T02:25:40.349Z,1008.93
2018-10-03T02:26:39.911Z,1008.90
2018-10-03T02:27:39.615Z,1008.92
2018-10-03T02:28:39.582Z,1008.89
2018-10-03T02:29:40.345Z,1008.86
2018-10-03T02:30:40.351Z,1008.86
2018-10-03T02:31:39.909Z,1008.84
2018-10-03T02:32:39.469Z,1008.97
2018-10-03T02:33:39.433Z,1008.84
2018-10-03T02:34:39.404Z,1008.90
2018-10-03T02:35:39.373Z,1008.82
2018-10-03T02:36:39.382Z,1008.88
2018-10-03T02:37:39.363Z,1008.90
2018-10-03T02:38:39.845Z,1008.87
2018-10-03T02:39:39.844Z,1008.90
2018-10-03T02:40:39.229Z,1008.89
2018-10-03T02:41:39.198Z,1008.94
2018-10-03T02:42:39.203Z,1008.90
2018-10-03T02:43:39.143Z,1008.88
2018-10-03T02:44:39.843Z,1008.92
2018-10-03T02:45:39.844Z,1008.95
2018-10-03T02:46:39.063Z,1008.87
2018-10-03T02:47:39.076Z,1009.04
2018-10-03T02:48:39.852Z,1008.91
2018-10-03T02:49:38.962Z,1008.95
2018-10-03T02:50:38.937Z,1008.97
2018-10-03T02:51:39.847Z,1008.97
2018-10-03T02:52:39.419Z,1008.97
2018-10-03T02:53:38.915Z,1008.99
2018-10-03T02:54:38.822Z,1009.00
2018-10-03T02:55:39.354Z,1009.03
2018-10-03T02:56:39.346Z,1009.01
2018-10-03T02:57:39.350Z,1008.91
2018-10-03T02:58:38.903Z,1008.89
2018-10-03T02:59:38.665Z,1008.92
2018-10-03T03:00:39.349Z,1008.97
2018-10-03T03:01:38.633Z,1009.01
2018-10-03T03:02:38.575Z,1008.98
2018-10-03T03:03:38.616Z,1008.96
2018-10-03T03:04:38.519Z,1009.00
2018-10-03T03:05:39.357Z,1009.09
2018-10-03T03:06:38.461Z,1008.98
2018-10-03T03:07:38.447Z,1008.97
2018-10-03T03:08:38.991Z,1008.99
2018-10-03T03:09:38.369Z,1008.91
2018-10-03T03:10:38.347Z,1008.99
2018-10-03T03:11:38.854Z,1009.05
2018-10-03T03:12:38.281Z,1008.94
2018-10-03T03:13:38.296Z,1008.99
2018-10-03T03:14:38.404Z,1009.01
2018-10-03T03:15:38.856Z,1009.07
2018-10-03T03:16:38.916Z,1009.00
2018-10-03T03:17:38.133Z,1009.04
2018-10-03T03:18:38.104Z,1009.04
2018-10-03T03:19:38.410Z,1008.91
2018-10-03T03:20:38.901Z,1008.98
2018-10-03T03:21:38.024Z,1008.99
2018-10-03T03:22:38.853Z,1008.97
2018-10-03T03:23:37.956Z,1008.96
2018-10-03T03:24:38.411Z,1008.89
2018-10-03T03:25:38.877Z,1008.91
2018-10-03T03:26:38.852Z,1008.91
2018-10-03T03:27:38.355Z,1009.00
2018-10-03T03:28:38.352Z,1008.93
2018-10-03T03:29:37.907Z,1008.93
2018-10-03T03:30:37.757Z,1008.97
2018-10-03T03:31:38.363Z,1009.04
2018-10-03T03:32:38.361Z,1009.09
2018-10-03T03:33:37.653Z,1009.06
2018-10-03T03:34:37.912Z,1009.01
2018-10-03T03:35:38.760Z,1009.04
2018-10-03T03:36:38.357Z,1008.98
2018-10-03T03:37:37.534Z,1009.04
2018-10-03T03:38:38.356Z,1008.99
2018-10-03T03:39:38.360Z,1009.01
2018-10-03T03:40:37.502Z,1009.00
2018-10-03T03:41:38.354Z,1009.10
2018-10-03T03:42:38.357Z,1009.10
2018-10-03T03:43:37.855Z,1009.06
2018-10-03T03:44:37.868Z,1009.00
2018-10-03T03:45:37.336Z,1009.00
2018-10-03T03:46:37.277Z,1009.06
2018-10-03T03:47:37.246Z,1009.08
2018-10-03T03:48:37.864Z,1008.96
2018-10-03T03:49:37.173Z,1009.06
2018-10-03T03:50:37.183Z,1009.05
2018-10-03T03:51:37.862Z,1009.01
2018-10-03T03:52:37.134Z,1009.07
2018-10-03T03:53:37.055Z,1009.09
2018-10-03T03:54:37.027Z,1009.14
2018-10-03T03:55:37.039Z,1009.15
2018-10-03T03:56:37.865Z,1009.12
2018-10-03T03:57:37.862Z,1009.17
2018-10-03T03:58:37.856Z,1009.12
2018-10-03T03:59:37.858Z,1009.04
2018-10-03T04:00:36.891Z,1009.10
2018-10-03T04:01:36.872Z,1009.11
2018-10-03T04:02:36.934Z,1009.14
2018-10-03T04:03:37.363Z,1009.09
2018-10-03T04:04:36.737Z,1009.15
2018-10-03T04:05:37.360Z,1009.05
2018-10-03T04:06:37.368Z,1009.15
2018-10-03T04:07:36.884Z,1009.21
2018-10-03T04:08:37.365Z,1009.09
2018-10-03T04:09:36.578Z,1009.15
2018-10-03T04:10:36.557Z,1009.16
2018-10-03T04:11:36.940Z,1009.15
2018-10-03T04:12:36.493Z,1009.16
2018-10-03T04:13:36.462Z,1009.10
2018-10-03T04:14:37.361Z,1009.16
2018-10-03T04:15:37.358Z,1009.06
2018-10-03T04:16:36.926Z,1009.05
2018-10-03T04:17:36.347Z,1009.12
2018-10-03T04:18:36.858Z,1008.98
2018-10-03T04:19:36.281Z,1008.87
2018-10-03T04:20:36.255Z,1008.93
2018-10-03T04:21:37.014Z,1008.96
2018-10-03T04:22:36.209Z,1008.95
2018-10-03T04:23:36.162Z,1009.12
2018-10-03T04:24:36.131Z,1009.13
2018-10-03T04:25:36.105Z,1009.16
2018-10-03T04:26:36.418Z,1009.11
2018-10-03T04:27:37.399Z,1009.16
2018-10-03T04:28:36.864Z,1009.10
2018-10-03T04:29:36.016Z,1009.11
2018-10-03T04:30:35.952Z,1009.05
2018-10-03T04:31:36.867Z,1009.27
2018-10-03T04:32:35.941Z,1009.22
2018-10-03T04:33:36.373Z,1009.24
2018-10-03T04:34:36.570Z,1009.23
2018-10-03T04:35:35.867Z,1009.20
2018-10-03T04:36:36.366Z,1009.29
2018-10-03T04:37:35.789Z,1009.30
2018-10-03T04:38:35.709Z,1009.28
2018-10-03T04:39:35.728Z,1009.25
2018-10-03T04:40:36.361Z,1009.24
2018-10-03T04:41:35.619Z,1009.36
2018-10-03T04:42:35.591Z,1009.29
2018-10-03T04:43:35.921Z,1009.26
2018-10-03T04:44:36.364Z,1009.29
2018-10-03T04:45:36.382Z,1009.30
2018-10-03T04:46:36.366Z,1009.37
2018-10-03T04:47:35.438Z,1009.34
2018-10-03T04:48:35.456Z,1009.32
2018-10-03T04:49:36.366Z,1009.39
2018-10-03T04:50:35.392Z,1009.35
2018-10-03T04:51:35.867Z,1009.32
2018-10-03T04:52:35.317Z,1009.20
2018-10-03T04:53:35.305Z,1009.26
2018-10-03T04:54:35.227Z,1009.34
2018-10-03T04:55:35.200Z,1009.37
2018-10-03T04:56:35.171Z,1009.45
2018-10-03T04:57:35.867Z,1009.49
2018-10-03T04:58:35.152Z,1009.47
2018-10-03T04:59:35.130Z,1009.52
2018-10-03T05:00:35.050Z,1009.54
2018-10-03T05:01:35.865Z,1009.60
2018-10-03T05:02:34.996Z,1009.64
2018-10-03T05:03:35.003Z,1009.58
2018-10-03T05:04:37.295Z,1009.64
2018-10-03T05:05:35.885Z,1009.51
2018-10-03T05:06:35.373Z,1009.65
2018-10-03T05:07:35.377Z,1009.70
2018-10-03T05:08:35.416Z,1009.86
2018-10-03T05:09:34.838Z,1009.87
2018-10-03T05:10:34.751Z,1009.66
2018-10-03T05:11:34.720Z,1009.68
2018-10-03T05:12:34.699Z,1009.77
2018-10-03T05:13:35.373Z,1009.63
2018-10-03T05:14:34.676Z,1009.75
2018-10-03T05:15:35.370Z,1009.74
2018-10-03T05:16:35.371Z,1009.79
2018-10-03T05:17:34.568Z,1009.55
2018-10-03T05:18:34.560Z,1009.69
2018-10-03T05:19:34.924Z,1009.62
2018-10-03T05:20:35.375Z,1009.69
2018-10-03T05:21:35.378Z,1009.72
2018-10-03T05:22:34.388Z,1009.63
2018-10-03T05:23:34.433Z,1009.63
2018-10-03T05:24:34.871Z,1009.53
2018-10-03T05:25:34.306Z,1009.54
2018-10-03T05:26:34.282Z,1009.59
2018-10-03T05:27:34.878Z,1009.62
2018-10-03T05:28:34.266Z,1009.70
2018-10-03T05:29:34.879Z,1009.72
2018-10-03T05:30:34.159Z,1009.69
2018-10-03T05:31:34.171Z,1009.72
2018-10-03T05:32:34.870Z,1009.68
2018-10-03T05:33:34.061Z,1009.68
2018-10-03T05:34:34.051Z,1009.76
2018-10-03T05:35:34.051Z,1009.81
2018-10-03T05:36:33.969Z,1009.80
2018-10-03T05:37:33.945Z,1009.74
2018-10-03T05:38:34.879Z,1009.83
2018-10-03T05:39:33.886Z,1009.82
2018-10-03T05:40:35.421Z,1009.87
2018-10-03T05:41:33.830Z,1009.94
2018-10-03T05:42:33.925Z,1009.97
2018-10-03T05:43:33.762Z,1009.97
2018-10-03T05:44:34.380Z,1009.86
2018-10-03T05:45:35.287Z,1009.94
2018-10-03T05:46:33.721Z,1010.13
2018-10-03T05:47:34.375Z,1010.17
2018-10-03T05:48:34.383Z,1010.03
2018-10-03T05:49:33.588Z,1010.12
2018-10-03T05:50:33.559Z,1010.14
2018-10-03T05:51:33.922Z,1010.16
2018-10-03T05:52:33.503Z,1010.19
2018-10-03T05:53:33.507Z,1010.17
2018-10-03T05:54:34.430Z,1010.19
2018-10-03T05:55:33.417Z,1010.00
2018-10-03T05:56:33.438Z,1010.19
2018-10-03T05:57:33.345Z,1010.07
2018-10-03T05:58:33.343Z,1010.14
2018-10-03T05:59:33.308Z,1010.06
2018-10-03T06:00:33.262Z,1010.10
2018-10-03T06:01:33.267Z,1010.16
2018-10-03T06:02:33.263Z,1010.13
2018-10-03T06:03:33.178Z,1010.26
2018-10-03T06:04:33.138Z,1010.19
2018-10-03T06:05:33.113Z,1010.21
2018-10-03T06:06:33.083Z,1010.24
2018-10-03T06:07:33.099Z,1010.25
2018-10-03T06:08:33.020Z,1010.23
2018-10-03T06:09:32.992Z,1010.31
2018-10-03T06:10:32.967Z,1010.32
2018-10-03T06:11:32.934Z,1010.37
2018-10-03T06:12:32.952Z,1010.38
2018-10-03T06:13:32.879Z,1010.43
2018-10-03T06:14:32.848Z,1010.39
2018-10-03T06:15:32.849Z,1010.34
2018-10-03T06:16:32.785Z,1010.45
2018-10-03T06:17:32.800Z,1010.41
2018-10-03T06:18:32.778Z,1010.45
2018-10-03T06:19:32.725Z,1010.52
2018-10-03T06:20:32.664Z,1010.51
2018-10-03T06:21:32.635Z,1010.60
2018-10-03T06:22:32.670Z,1010.56
2018-10-03T06:23:32.574Z,1010.49
2018-10-03T06:24:32.545Z,1010.60
2018-10-03T06:25:32.520Z,1010.63
2018-10-03T06:26:32.492Z,1010.65
2018-10-03T06:27:32.516Z,1010.66
2018-10-03T06:28:32.431Z,1010.67
2018-10-03T06:29:32.402Z,1010.65
2018-10-03T06:30:32.378Z,1010.60
2018-10-03T06:31:32.342Z,1010.65
2018-10-03T06:32:32.356Z,1010.71
2018-10-03T06:33:32.398Z,1010.59
2018-10-03T06:34:32.256Z,1010.76
2018-10-03T06:35:32.275Z,1010.72
2018-10-03T06:36:32.203Z,1010.76
2018-10-03T06:37:32.169Z,1010.76
2018-10-03T06:38:32.438Z,1010.83
2018-10-03T06:39:32.162Z,1010.79
2018-10-03T06:40:32.182Z,1010.75
2018-10-03T06:41:32.045Z,1010.87
2018-10-03T06:42:32.016Z,1010.78
2018-10-03T06:43:31.990Z,1010.80
2018-10-03T06:44:31.958Z,1010.79
2018-10-03T06:45:32.492Z,1010.98
2018-10-03T06:46:31.900Z,1010.89
2018-10-03T06:47:31.872Z,1010.85
2018-10-03T06:48:31.845Z,1011.00
2018-10-03T06:49:31.813Z,1010.81
2018-10-03T06:50:31.840Z,1010.90
2018-10-03T06:51:32.385Z,1010.92
2018-10-03T06:52:31.729Z,1011.07
2018-10-03T06:53:31.697Z,1010.95
2018-10-03T06:54:31.664Z,1011.00
2018-10-03T06:55:31.691Z,1010.99
2018-10-03T06:56:31.616Z,1011.02
2018-10-03T06:57:31.577Z,1011.02
2018-10-03T06:58:31.554Z,1011.04
2018-10-03T06:59:31.516Z,1011.13
2018-10-03T07:00:31.556Z,1011.00
2018-10-03T07:01:31.612Z,1010.99
2018-10-03T07:02:31.435Z,1011.05
2018-10-03T07:03:31.411Z,1010.96
2018-10-03T07:04:31.374Z,1011.12
2018-10-03T07:05:32.388Z,1011.22
2018-10-03T07:06:31.370Z,1011.28
2018-10-03T07:07:31.304Z,1011.21
2018-10-03T07:08:31.305Z,1011.22
2018-10-03T07:09:31.231Z,1011.30
2018-10-03T07:10:31.200Z,1011.32
2018-10-03T07:11:31.295Z,1011.31
2018-10-03T07:12:31.140Z,1011.28
2018-10-03T07:13:31.147Z,1011.26
2018-10-03T07:14:31.090Z,1011.26
2018-10-03T07:15:31.798Z,1011.44
2018-10-03T07:16:34.794Z,1011.39
2018-10-03T07:17:31.007Z,1011.35
2018-10-03T07:18:31.025Z,1011.35
2018-10-03T07:19:30.981Z,1011.38
2018-10-03T07:20:30.925Z,1011.46
2018-10-03T07:21:30.881Z,1011.40
2018-10-03T07:22:30.860Z,1011.50
2018-10-03T07:23:30.863Z,1011.37
2018-10-03T07:24:30.838Z,1011.62
2018-10-03T07:25:30.765Z,1011.58
2018-10-03T07:26:30.735Z,1011.52
2018-10-03T07:27:30.718Z,1011.62
2018-10-03T07:28:30.724Z,1011.64
2018-10-03T07:29:30.684Z,1011.55
2018-10-03T07:30:30.644Z,1011.62
2018-10-03T07:31:30.599Z,1011.54
2018-10-03T07:32:30.605Z,1011.70
2018-10-03T07:33:30.593Z,1011.65
2018-10-03T07:34:30.510Z,1011.51
2018-10-03T07:35:30.485Z,1011.69
2018-10-03T07:36:30.449Z,1011.80
2018-10-03T07:37:30.421Z,1011.77
2018-10-03T07:38:30.434Z,1011.78
2018-10-03T07:39:30.422Z,1011.90
2018-10-03T07:40:30.343Z,1011.88
2018-10-03T07:41:30.308Z,1011.79
2018-10-03T07:42:30.281Z,1011.92
2018-10-03T07:43:30.255Z,1011.87
2018-10-03T07:44:30.900Z,1011.93
2018-10-03T07:45:30.194Z,1011.86
2018-10-03T07:46:30.180Z,1011.92
2018-10-03T07:47:30.137Z,1012.01
2018-10-03T07:48:30.109Z,1011.91
2018-10-03T07:49:30.136Z,1011.94
2018-10-03T07:50:30.056Z,1012.15
2018-10-03T07:51:30.023Z,1012.20
2018-10-03T07:52:29.999Z,1012.12
2018-10-03T07:53:29.970Z,1012.09
2018-10-03T07:54:29.981Z,1012.11
2018-10-03T07:55:29.964Z,1012.08
2018-10-03T07:56:29.890Z,1012.16
2018-10-03T07:57:29.876Z,1012.17
2018-10-03T07:58:29.825Z,1012.08
2018-10-03T07:59:29.813Z,1012.21
2018-10-03T08:00:29.889Z,1012.10
2018-10-03T08:01:29.745Z,1012.06
2018-10-03T08:02:29.756Z,1012.06
2018-10-03T08:03:29.684Z,1012.06
2018-10-03T08:04:29.662Z,1012.13
2018-10-03T08:05:29.627Z,1012.06
2018-10-03T08:06:29.655Z,1012.11
2018-10-03T08:07:29.583Z,1012.21
2018-10-03T08:08:29.665Z,1012.21
2018-10-03T08:09:29.525Z,1012.18
2018-10-03T08:10:29.511Z,1012.13
2018-10-03T08:11:29.518Z,1012.06
2018-10-03T08:12:29.429Z,1012.07
2018-10-03T08:13:30.408Z,1012.18
2018-10-03T08:14:29.374Z,1012.32
2018-10-03T08:15:29.351Z,1012.20
2018-10-03T08:16:29.368Z,1012.28
2018-10-03T08:17:29.403Z,1012.39
2018-10-03T08:18:29.276Z,1012.32
2018-10-03T08:19:29.238Z,1012.33
2018-10-03T08:20:29.900Z,1012.45
2018-10-03T08:21:29.183Z,1012.30
2018-10-03T08:22:29.229Z,1012.39
2018-10-03T08:23:29.122Z,1012.36
2018-10-03T08:24:29.116Z,1012.34
2018-10-03T08:25:29.067Z,1012.56
2018-10-03T08:26:29.040Z,1012.44
2018-10-03T08:27:29.065Z,1012.46
2018-10-03T08:28:28.983Z,1012.35
2018-10-03T08:29:28.957Z,1012.36
2018-10-03T08:30:28.930Z,1012.24
2018-10-03T08:31:28.896Z,1012.38
2018-10-03T08:32:28.948Z,1012.29
2018-10-03T08:33:29.401Z,1012.34
2018-10-03T08:34:28.861Z,1012.47
2018-10-03T08:35:28.787Z,1012.70
2018-10-03T08:36:28.759Z,1012.54
2018-10-03T08:37:28.728Z,1012.46
2018-10-03T08:38:28.707Z,1012.49
2018-10-03T08:39:28.719Z,1012.58
2018-10-03T08:40:28.669Z,1012.43
2018-10-03T08:41:28.637Z,1012.52
2018-10-03T08:42:28.591Z,1012.43
2018-10-03T08:43:28.564Z,1012.38
2018-10-03T08:44:29.010Z,1012.46
2018-10-03T08:45:28.560Z,1012.49
2018-10-03T08:46:28.479Z,1012.42
2018-10-03T08:47:28.445Z,1012.45
2018-10-03T08:48:28.463Z,1012.56
2018-10-03T08:49:28.453Z,1012.49
2018-10-03T08:50:28.380Z,1012.53
2018-10-03T08:51:28.340Z,1012.52
2018-10-03T08:52:28.309Z,1012.71
2018-10-03T08:53:28.298Z,1012.85
2018-10-03T08:54:28.304Z,1012.69
2018-10-03T08:55:28.281Z,1012.64
2018-10-03T08:56:28.200Z,1012.70
2018-10-03T08:57:28.177Z,1012.67
2018-10-03T08:58:28.324Z,1012.84
2018-10-03T08:59:28.117Z,1012.73
2018-10-03T09:00:28.146Z,1012.81
2018-10-03T09:01:28.064Z,1012.83
2018-10-03T09:02:28.039Z,1012.78
2018-10-03T09:03:28.008Z,1012.87
2018-10-03T09:04:27.983Z,1012.91
2018-10-03T09:05:28.008Z,1012.90
2018-10-03T09:06:27.932Z,1012.93
2018-10-03T09:07:27.904Z,1012.96
2018-10-03T09:08:27.876Z,1013.06
2018-10-03T09:09:27.848Z,1012.95
2018-10-03T09:10:27.869Z,1012.94
2018-10-03T09:11:27.852Z,1013.09
2018-10-03T09:12:27.765Z,1012.96
2018-10-03T09:13:27.961Z,1013.21
2018-10-03T09:14:27.728Z,1013.15
2018-10-03T09:15:27.706Z,1013.20
2018-10-03T09:16:27.700Z,1013.14
2018-10-03T09:17:27.637Z,1013.21
2018-10-03T09:18:27.654Z,1013.19
2018-10-03T09:19:27.576Z,1013.19
2018-10-03T09:20:27.554Z,1013.37
2018-10-03T09:21:27.598Z,1013.33
2018-10-03T09:22:27.583Z,1013.44
2018-10-03T09:23:27.468Z,1013.36
2018-10-03T09:24:27.487Z,1013.28
2018-10-03T09:25:27.415Z,1013.46
2018-10-03T09:26:27.390Z,1012.89
2018-10-03T09:27:27.359Z,1013.33
2018-10-03T09:28:27.397Z,1013.39
2018-10-03T09:29:27.370Z,1013.33
2018-10-03T09:30:27.284Z,1013.50
2018-10-03T09:31:27.250Z,1013.53
2018-10-03T09:32:27.226Z,1013.69
2018-10-03T09:33:27.240Z,1013.57
2018-10-03T09:34:27.223Z,1013.52
2018-10-03T09:35:27.143Z,1013.75
2018-10-03T09:36:27.121Z,1013.71
2018-10-03T09:37:27.087Z,1013.63
2018-10-03T09:38:27.103Z,1013.59
2018-10-03T09:39:27.553Z,1013.61
2018-10-03T09:40:27.017Z,1013.59
2018-10-03T09:41:26.986Z,1013.65
2018-10-03T09:42:26.960Z,1013.66
2018-10-03T09:43:26.936Z,1013.65
2018-10-03T09:44:27.010Z,1013.78
2018-10-03T09:45:26.873Z,1013.67
2018-10-03T09:46:27.420Z,1013.73
2018-10-03T09:47:26.828Z,1013.84
2018-10-03T09:48:27.420Z,1013.89
2018-10-03T09:49:26.817Z,1013.83
2018-10-03T09:50:26.749Z,1013.88
2018-10-03T09:51:26.711Z,1013.86
2018-10-03T09:52:26.683Z,1013.93
2018-10-03T09:53:26.655Z,1013.94
2018-10-03T09:54:26.681Z,1013.89
2018-10-03T09:55:26.644Z,1013.79
2018-10-03T09:56:26.618Z,1013.98
2018-10-03T09:57:26.558Z,1013.90
2018-10-03T09:58:26.545Z,1013.97
2018-10-03T09:59:26.511Z,1013.99
2018-10-03T10:00:26.519Z,1013.95
2018-10-03T10:01:26.497Z,1013.89
2018-10-03T10:02:26.417Z,1013.82
2018-10-03T10:03:26.389Z,1014.02
2018-10-03T10:04:26.369Z,1013.92
2018-10-03T10:05:26.334Z,1014.02
2018-10-03T10:06:26.472Z,1014.12
2018-10-03T10:07:26.285Z,1014.09
2018-10-03T10:08:26.259Z,1014.43
2018-10-03T10:09:26.236Z,1014.07
2018-10-03T10:10:26.208Z,1014.09
2018-10-03T10:11:26.332Z,1014.05
2018-10-03T10:12:26.157Z,1014.07
2018-10-03T10:13:26.126Z,1014.15
2018-10-03T10:14:26.103Z,1014.19
2018-10-03T10:15:26.092Z,1014.13
2018-10-03T10:16:26.085Z,1014.20
2018-10-03T10:17:26.015Z,1014.29
2018-10-03T10:18:25.994Z,1014.32
2018-10-03T10:19:25.975Z,1014.24
2018-10-03T10:20:25.947Z,1014.30
2018-10-03T10:21:25.969Z,1014.42
2018-10-03T10:22:25.958Z,1014.17
2018-10-03T10:23:25.900Z,1014.34
2018-10-03T10:24:25.826Z,1014.30
2018-10-03T10:25:26.471Z,1014.33
2018-10-03T10:26:26.479Z,1014.44
2018-10-03T10:27:25.786Z,1014.31
2018-10-03T10:28:26.423Z,1014.65
2018-10-03T10:29:26.427Z,1014.47
2018-10-03T10:30:25.662Z,1014.36
2018-10-03T10:31:25.640Z,1014.46
2018-10-03T10:32:25.769Z,1014.40
2018-10-03T10:33:25.587Z,1014.47
2018-10-03T10:34:25.557Z,1014.41
2018-10-03T10:35:26.333Z,1014.30
2018-10-03T10:36:26.438Z,1014.37
2018-10-03T10:37:25.520Z,1014.33
2018-10-03T10:38:25.457Z,1014.57
2018-10-03T10:39:25.432Z,1014.43
2018-10-03T10:40:25.550Z,1014.37
2018-10-03T10:41:25.563Z,1014.56
2018-10-03T10:42:25.357Z,1014.59
2018-10-03T10:43:25.441Z,1014.45
2018-10-03T10:44:25.289Z,1014.53
2018-10-03T10:45:25.316Z,1014.54
2018-10-03T10:46:25.297Z,1014.52
2018-10-03T10:47:25.206Z,1014.45
2018-10-03T10:48:25.184Z,1014.46
2018-10-03T10:49:25.157Z,1014.50
2018-10-03T10:50:25.196Z,1014.49
2018-10-03T10:51:25.150Z,1014.51
2018-10-03T10:52:25.078Z,1014.49
2018-10-03T10:53:25.045Z,1014.51
2018-10-03T10:54:25.020Z,1014.55
2018-10-03T10:55:25.929Z,1014.53
2018-10-03T10:56:25.005Z,1014.48
2018-10-03T10:57:24.939Z,1014.47
2018-10-03T10:58:25.002Z,1014.55
2018-10-03T10:59:24.888Z,1014.49
2018-10-03T11:00:24.858Z,1014.51
2018-10-03T11:01:24.842Z,1014.49
2018-10-03T11:02:25.441Z,1014.51
2018-10-03T11:03:24.880Z,1014.53
2018-10-03T11:04:24.990Z,1014.49
2018-10-03T11:05:25.457Z,1014.50
2018-10-03T11:06:25.432Z,1014.73
2018-10-03T11:07:24.671Z,1014.53
2018-10-03T11:08:25.439Z,1014.64
2018-10-03T11:09:24.670Z,1014.55
2018-10-03T11:10:24.597Z,1014.71
2018-10-03T11:11:24.564Z,1014.49
2018-10-03T11:12:24.540Z,1014.56
2018-10-03T11:13:24.517Z,1014.52
2018-10-03T11:14:24.541Z,1014.56
2018-10-03T11:15:24.490Z,1014.58
2018-10-03T11:16:24.439Z,1014.70
2018-10-03T11:17:24.403Z,1014.67
2018-10-03T11:18:24.941Z,1014.64
2018-10-03T11:19:24.393Z,1014.67
2018-10-03T11:20:24.320Z,1014.64
2018-10-03T11:21:24.295Z,1014.66
2018-10-03T11:22:24.269Z,1014.75
2018-10-03T11:23:24.356Z,1014.77
2018-10-03T11:24:24.422Z,1014.71
2018-10-03T11:25:24.232Z,1014.70
2018-10-03T11:26:24.158Z,1014.77
2018-10-03T11:27:24.139Z,1014.84
2018-10-03T11:28:24.107Z,1014.81
2018-10-03T11:29:24.122Z,1014.83
2018-10-03T11:30:24.107Z,1014.65
2018-10-03T11:31:24.031Z,1014.79
2018-10-03T11:32:23.998Z,1014.69
2018-10-03T11:33:23.976Z,1014.67
2018-10-03T11:34:23.961Z,1014.67
2018-10-03T11:35:23.984Z,1014.80
2018-10-03T11:36:23.897Z,1014.86
2018-10-03T11:37:23.871Z,1015.01
2018-10-03T11:38:23.913Z,1014.83
2018-10-03T11:39:23.819Z,1014.81
2018-10-03T11:40:23.855Z,1014.97
2018-10-03T11:41:23.799Z,1014.96
2018-10-03T11:42:23.735Z,1015.09
2018-10-03T11:43:23.704Z,1015.00
2018-10-03T11:44:23.678Z,1015.07
2018-10-03T11:45:23.653Z,1014.93
2018-10-03T11:46:23.993Z,1014.95
2018-10-03T11:47:24.445Z,1014.92
2018-10-03T11:48:23.571Z,1014.90
2018-10-03T11:49:23.551Z,1015.04
2018-10-03T11:50:23.529Z,1014.97
2018-10-03T11:51:23.532Z,1015.17
2018-10-03T11:52:23.460Z,1014.97
2018-10-03T11:53:23.510Z,1015.06
2018-10-03T11:54:23.414Z,1015.01
2018-10-03T11:55:23.955Z,1015.13
2018-10-03T11:56:23.500Z,1015.25
2018-10-03T11:57:23.330Z,1015.22
2018-10-03T11:58:23.300Z,1015.25
2018-10-03T11:59:23.314Z,1015.35
2018-10-03T12:00:23.251Z,1015.38
2018-10-03T12:01:23.498Z,1015.37
2018-10-03T12:02:23.202Z,1015.35
2018-10-03T12:03:23.255Z,1015.45
2018-10-03T12:04:23.159Z,1015.34
2018-10-03T12:05:23.120Z,1015.44